sensor_id;sensor_type;location;lat;lon;timestamp;temperature;humidity
14099;DHT22;7126;48.458;7.930;2024-02-26T00:01:38;10.30;99.90
14099;DHT22;7126;48.458;7.930;2024-02-26T00:04:04;10.20;99.90
14099;DHT22;7126;48.458;7.930;2024-02-26T00:06:30;10.20;99.90
14099;DHT22;7126;48.458;7.930;2024-02-26T00:08:56;10.10;99.90
14099;DHT22;7126;48.458;7.930;2024-02-26T00:11:22;10.10;99.90
14099;DHT22;7126;48.458;7.930;2024-02-26T00:13:48;10.10;99.90
14099;DHT22;7126;48.458;7.930;2024-02-26T00:16:13;10.10;99.90
14099;DHT22;7126;48.458;7.930;2024-02-26T00:18:39;10.10;99.90
14099;DHT22;7126;48.458;7.930;2024-02-26T00:21:04;10.10;99.90
14099;DHT22;7126;48.458;7.930;2024-02-26T00:23:30;10.00;99.90
14099;DHT22;7126;48.458;7.930;2024-02-26T00:25:55;10.00;99.90
14099;DHT22;7126;48.458;7.930;2024-02-26T00:28:21;10.00;99.90
14099;DHT22;7126;48.458;7.930;2024-02-26T00:30:47;9.90;99.90
14099;DHT22;7126;48.458;7.930;2024-02-26T00:33:15;9.80;99.90
14099;DHT22;7126;48.458;7.930;2024-02-26T00:35:40;9.80;99.90
14099;DHT22;7126;48.458;7.930;2024-02-26T00:38:06;9.70;99.90
14099;DHT22;7126;48.458;7.930;2024-02-26T00:40:31;9.70;99.90
14099;DHT22;7126;48.458;7.930;2024-02-26T00:42:57;9.70;99.90
14099;DHT22;7126;48.458;7.930;2024-02-26T00:45:22;9.60;99.90
14099;DHT22;7126;48.458;7.930;2024-02-26T00:47:48;9.60;99.90
14099;DHT22;7126;48.458;7.930;2024-02-26T00:50:15;9.50;99.90
14099;DHT22;7126;48.458;7.930;2024-02-26T00:52:40;9.40;99.90
14099;DHT22;7126;48.458;7.930;2024-02-26T00:55:06;9.30;99.90
14099;DHT22;7126;48.458;7.930;2024-02-26T00:57:32;9.30;99.90
14099;DHT22;7126;48.458;7.930;2024-02-26T01:00:03;9.30;99.90
14099;DHT22;7126;48.458;7.930;2024-02-26T01:02:28;9.20;99.90
14099;DHT22;7126;48.458;7.930;2024-02-26T01:04:54;9.10;99.90
14099;DHT22;7126;48.458;7.930;2024-02-26T01:07:19;9.00;99.90
14099;DHT22;7126;48.458;7.930;2024-02-26T01:09:45;9.10;99.90
14099;DHT22;7126;48.458;7.930;2024-02-26T01:12:10;9.10;99.90
14099;DHT22;7126;48.458;7.930;2024-02-26T01:14:36;9.00;99.90
14099;DHT22;7126;48.458;7.930;2024-02-26T01:17:01;9.00;99.90
14099;DHT22;7126;48.458;7.930;2024-02-26T01:19:28;9.00;99.90
14099;DHT22;7126;48.458;7.930;2024-02-26T01:21:53;9.00;99.90
14099;DHT22;7126;48.458;7.930;2024-02-26T01:24:19;8.90;99.90
14099;DHT22;7126;48.458;7.930;2024-02-26T01:26:44;8.90;99.90
14099;DHT22;7126;48.458;7.930;2024-02-26T01:29:10;8.80;99.90
14099;DHT22;7126;48.458;7.930;2024-02-26T01:31:35;8.80;99.90
14099;DHT22;7126;48.458;7.930;2024-02-26T01:34:01;8.80;99.90
14099;DHT22;7126;48.458;7.930;2024-02-26T01:36:27;8.80;99.90
14099;DHT22;7126;48.458;7.930;2024-02-26T01:38:52;8.80;99.90
14099;DHT22;7126;48.458;7.930;2024-02-26T01:41:18;8.80;99.90
14099;DHT22;7126;48.458;7.930;2024-02-26T01:43:43;8.70;99.90
14099;DHT22;7126;48.458;7.930;2024-02-26T01:46:12;8.70;99.90
14099;DHT22;7126;48.458;7.930;2024-02-26T01:48:42;8.70;99.90
14099;DHT22;7126;48.458;7.930;2024-02-26T01:51:09;8.70;99.90
14099;DHT22;7126;48.458;7.930;2024-02-26T01:53:35;8.60;99.90
14099;DHT22;7126;48.458;7.930;2024-02-26T01:56:01;8.60;99.90
14099;DHT22;7126;48.458;7.930;2024-02-26T01:58:27;8.60;99.90
14099;DHT22;7126;48.458;7.930;2024-02-26T02:00:53;8.60;99.90
14099;DHT22;7126;48.458;7.930;2024-02-26T02:03:18;8.60;99.90
14099;DHT22;7126;48.458;7.930;2024-02-26T02:05:44;8.70;99.90
14099;DHT22;7126;48.458;7.930;2024-02-26T02:08:13;8.80;99.90
14099;DHT22;7126;48.458;7.930;2024-02-26T02:10:40;8.80;99.90
14099;DHT22;7126;48.458;7.930;2024-02-26T02:13:07;8.80;99.90
14099;DHT22;7126;48.458;7.930;2024-02-26T02:15:32;8.80;99.90
14099;DHT22;7126;48.458;7.930;2024-02-26T02:17:58;8.90;99.90
14099;DHT22;7126;48.458;7.930;2024-02-26T02:20:26;8.90;99.90
14099;DHT22;7126;48.458;7.930;2024-02-26T02:22:56;8.90;99.90
14099;DHT22;7126;48.458;7.930;2024-02-26T02:25:22;8.90;99.90
14099;DHT22;7126;48.458;7.930;2024-02-26T02:27:47;8.80;99.90
14099;DHT22;7126;48.458;7.930;2024-02-26T02:30:13;8.80;99.90
14099;DHT22;7126;48.458;7.930;2024-02-26T02:32:40;8.70;99.90
14099;DHT22;7126;48.458;7.930;2024-02-26T02:35:07;8.70;99.90
14099;DHT22;7126;48.458;7.930;2024-02-26T02:37:32;8.70;99.90
14099;DHT22;7126;48.458;7.930;2024-02-26T02:39:58;8.70;99.90
14099;DHT22;7126;48.458;7.930;2024-02-26T02:42:24;8.70;99.90
14099;DHT22;7126;48.458;7.930;2024-02-26T02:44:49;8.70;99.90
14099;DHT22;7126;48.458;7.930;2024-02-26T02:47:15;8.60;99.90
14099;DHT22;7126;48.458;7.930;2024-02-26T02:49:40;8.60;99.90
14099;DHT22;7126;48.458;7.930;2024-02-26T02:52:06;8.60;99.90
14099;DHT22;7126;48.458;7.930;2024-02-26T02:54:31;8.60;99.90
14099;DHT22;7126;48.458;7.930;2024-02-26T02:56:57;8.70;99.90
14099;DHT22;7126;48.458;7.930;2024-02-26T02:59:22;8.70;99.90
14099;DHT22;7126;48.458;7.930;2024-02-26T03:01:48;8.70;99.90
14099;DHT22;7126;48.458;7.930;2024-02-26T03:04:13;8.70;99.90
14099;DHT22;7126;48.458;7.930;2024-02-26T03:06:39;8.70;99.90
14099;DHT22;7126;48.458;7.930;2024-02-26T03:09:04;8.70;99.90
14099;DHT22;7126;48.458;7.930;2024-02-26T03:11:30;8.80;99.90
14099;DHT22;7126;48.458;7.930;2024-02-26T03:13:55;8.80;99.90
14099;DHT22;7126;48.458;7.930;2024-02-26T03:16:21;8.80;99.90
14099;DHT22;7126;48.458;7.930;2024-02-26T03:18:47;8.80;99.90
14099;DHT22;7126;48.458;7.930;2024-02-26T03:21:12;8.80;99.90
14099;DHT22;7126;48.458;7.930;2024-02-26T03:23:38;8.70;99.90
14099;DHT22;7126;48.458;7.930;2024-02-26T03:26:04;8.80;99.90
14099;DHT22;7126;48.458;7.930;2024-02-26T03:28:30;8.70;99.90
14099;DHT22;7126;48.458;7.930;2024-02-26T03:30:58;8.70;99.90
14099;DHT22;7126;48.458;7.930;2024-02-26T03:33:24;8.70;99.90
14099;DHT22;7126;48.458;7.930;2024-02-26T03:35:49;8.70;99.90
14099;DHT22;7126;48.458;7.930;2024-02-26T03:38:15;8.70;99.90
14099;DHT22;7126;48.458;7.930;2024-02-26T03:40:40;8.70;99.90
14099;DHT22;7126;48.458;7.930;2024-02-26T03:43:06;8.70;99.90
14099;DHT22;7126;48.458;7.930;2024-02-26T03:45:33;8.80;99.90
14099;DHT22;7126;48.458;7.930;2024-02-26T03:47:58;8.80;99.90
14099;DHT22;7126;48.458;7.930;2024-02-26T03:50:24;8.80;99.90
14099;DHT22;7126;48.458;7.930;2024-02-26T03:52:49;8.80;99.90
14099;DHT22;7126;48.458;7.930;2024-02-26T03:55:15;8.80;99.90
14099;DHT22;7126;48.458;7.930;2024-02-26T03:57:40;8.80;99.90
14099;DHT22;7126;48.458;7.930;2024-02-26T04:00:06;8.80;99.90
14099;DHT22;7126;48.458;7.930;2024-02-26T04:02:32;8.80;99.90
14099;DHT22;7126;48.458;7.930;2024-02-26T04:04:58;8.80;99.90
14099;DHT22;7126;48.458;7.930;2024-02-26T04:07:24;8.90;99.90
14099;DHT22;7126;48.458;7.930;2024-02-26T04:09:50;8.90;99.90
14099;DHT22;7126;48.458;7.930;2024-02-26T04:12:15;8.90;99.90
14099;DHT22;7126;48.458;7.930;2024-02-26T04:14:41;8.90;99.90
14099;DHT22;7126;48.458;7.930;2024-02-26T04:17:06;9.00;99.90
14099;DHT22;7126;48.458;7.930;2024-02-26T04:19:32;9.00;99.90
14099;DHT22;7126;48.458;7.930;2024-02-26T04:21:57;9.10;99.90
14099;DHT22;7126;48.458;7.930;2024-02-26T04:24:23;9.10;99.90
14099;DHT22;7126;48.458;7.930;2024-02-26T04:26:48;9.10;99.90
14099;DHT22;7126;48.458;7.930;2024-02-26T04:29:15;9.10;99.90
14099;DHT22;7126;48.458;7.930;2024-02-26T04:31:40;9.00;99.90
14099;DHT22;7126;48.458;7.930;2024-02-26T04:34:08;9.00;99.90
14099;DHT22;7126;48.458;7.930;2024-02-26T04:36:33;8.90;99.90
14099;DHT22;7126;48.458;7.930;2024-02-26T04:38:59;8.90;99.90
14099;DHT22;7126;48.458;7.930;2024-02-26T04:41:24;8.90;99.90
14099;DHT22;7126;48.458;7.930;2024-02-26T04:43:50;8.90;99.90
14099;DHT22;7126;48.458;7.930;2024-02-26T04:46:15;9.00;99.90
14099;DHT22;7126;48.458;7.930;2024-02-26T04:48:41;9.00;99.90
14099;DHT22;7126;48.458;7.930;2024-02-26T04:51:11;9.00;99.90
14099;DHT22;7126;48.458;7.930;2024-02-26T04:53:37;9.00;99.90
14099;DHT22;7126;48.458;7.930;2024-02-26T04:56:03;9.00;99.90
14099;DHT22;7126;48.458;7.930;2024-02-26T04:58:28;8.90;99.90
14099;DHT22;7126;48.458;7.930;2024-02-26T05:00:54;8.90;99.90
14099;DHT22;7126;48.458;7.930;2024-02-26T05:03:19;8.80;99.90
14099;DHT22;7126;48.458;7.930;2024-02-26T05:05:45;8.70;99.90
14099;DHT22;7126;48.458;7.930;2024-02-26T05:08:10;8.70;99.90
14099;DHT22;7126;48.458;7.930;2024-02-26T05:10:37;8.60;99.90
14099;DHT22;7126;48.458;7.930;2024-02-26T05:13:06;8.50;99.90
14099;DHT22;7126;48.458;7.930;2024-02-26T05:15:32;8.50;99.90
14099;DHT22;7126;48.458;7.930;2024-02-26T05:17:57;8.40;99.90
14099;DHT22;7126;48.458;7.930;2024-02-26T05:20:23;8.30;99.90
14099;DHT22;7126;48.458;7.930;2024-02-26T05:22:49;8.30;99.90
14099;DHT22;7126;48.458;7.930;2024-02-26T05:25:15;8.30;99.90
14099;DHT22;7126;48.458;7.930;2024-02-26T05:27:41;8.30;99.90
14099;DHT22;7126;48.458;7.930;2024-02-26T05:30:07;8.30;99.90
14099;DHT22;7126;48.458;7.930;2024-02-26T05:32:33;8.30;99.90
14099;DHT22;7126;48.458;7.930;2024-02-26T05:34:58;8.30;99.90
14099;DHT22;7126;48.458;7.930;2024-02-26T05:37:24;8.30;99.90
14099;DHT22;7126;48.458;7.930;2024-02-26T05:39:49;8.30;99.90
14099;DHT22;7126;48.458;7.930;2024-02-26T05:42:15;8.20;99.90
14099;DHT22;7126;48.458;7.930;2024-02-26T05:44:40;8.20;99.90
14099;DHT22;7126;48.458;7.930;2024-02-26T05:47:06;8.10;99.90
14099;DHT22;7126;48.458;7.930;2024-02-26T05:49:31;8.10;99.90
14099;DHT22;7126;48.458;7.930;2024-02-26T05:51:57;8.10;99.90
14099;DHT22;7126;48.458;7.930;2024-02-26T05:54:23;8.00;99.90
14099;DHT22;7126;48.458;7.930;2024-02-26T05:56:49;8.00;99.90
14099;DHT22;7126;48.458;7.930;2024-02-26T05:59:14;8.10;99.90
14099;DHT22;7126;48.458;7.930;2024-02-26T06:01:41;8.00;99.90
14099;DHT22;7126;48.458;7.930;2024-02-26T06:04:06;8.10;99.90
14099;DHT22;7126;48.458;7.930;2024-02-26T06:06:32;8.10;99.90
14099;DHT22;7126;48.458;7.930;2024-02-26T06:08:57;8.00;99.90
14099;DHT22;7126;48.458;7.930;2024-02-26T06:11:23;8.00;99.90
14099;DHT22;7126;48.458;7.930;2024-02-26T06:13:49;8.10;99.90
14099;DHT22;7126;48.458;7.930;2024-02-26T06:16:14;8.10;99.90
14099;DHT22;7126;48.458;7.930;2024-02-26T06:18:39;8.10;99.90
14099;DHT22;7126;48.458;7.930;2024-02-26T06:21:09;8.20;99.90
14099;DHT22;7126;48.458;7.930;2024-02-26T06:23:36;8.20;99.90
14099;DHT22;7126;48.458;7.930;2024-02-26T06:26:01;8.10;99.90
14099;DHT22;7126;48.458;7.930;2024-02-26T06:28:27;8.10;99.90
14099;DHT22;7126;48.458;7.930;2024-02-26T06:30:55;8.20;99.90
14099;DHT22;7126;48.458;7.930;2024-02-26T06:33:21;8.20;99.90
14099;DHT22;7126;48.458;7.930;2024-02-26T06:35:47;8.20;99.90
14099;DHT22;7126;48.458;7.930;2024-02-26T06:38:12;8.20;99.90
14099;DHT22;7126;48.458;7.930;2024-02-26T06:40:39;8.20;99.90
14099;DHT22;7126;48.458;7.930;2024-02-26T06:43:04;8.30;99.90
14099;DHT22;7126;48.458;7.930;2024-02-26T06:45:30;8.30;99.90
14099;DHT22;7126;48.458;7.930;2024-02-26T06:47:56;8.30;99.90
14099;DHT22;7126;48.458;7.930;2024-02-26T06:50:22;8.40;99.90
14099;DHT22;7126;48.458;7.930;2024-02-26T06:52:47;8.40;99.90
14099;DHT22;7126;48.458;7.930;2024-02-26T06:55:13;8.40;99.90
14099;DHT22;7126;48.458;7.930;2024-02-26T06:57:39;8.50;99.90
14099;DHT22;7126;48.458;7.930;2024-02-26T07:00:05;8.50;99.90
14099;DHT22;7126;48.458;7.930;2024-02-26T07:02:31;8.40;99.90
14099;DHT22;7126;48.458;7.930;2024-02-26T07:04:56;8.40;99.90
14099;DHT22;7126;48.458;7.930;2024-02-26T07:07:23;8.30;99.90
14099;DHT22;7126;48.458;7.930;2024-02-26T07:09:49;8.20;99.90
14099;DHT22;7126;48.458;7.930;2024-02-26T07:12:15;8.20;99.90
14099;DHT22;7126;48.458;7.930;2024-02-26T07:14:41;8.20;99.90
14099;DHT22;7126;48.458;7.930;2024-02-26T07:17:07;8.20;99.90
14099;DHT22;7126;48.458;7.930;2024-02-26T07:19:33;8.20;99.90
14099;DHT22;7126;48.458;7.930;2024-02-26T07:21:59;8.20;99.90
14099;DHT22;7126;48.458;7.930;2024-02-26T07:24:26;8.20;99.90
14099;DHT22;7126;48.458;7.930;2024-02-26T07:26:53;8.30;99.90
14099;DHT22;7126;48.458;7.930;2024-02-26T07:29:20;8.30;99.90
14099;DHT22;7126;48.458;7.930;2024-02-26T07:31:46;8.20;99.90
14099;DHT22;7126;48.458;7.930;2024-02-26T07:34:12;8.20;99.90
14099;DHT22;7126;48.458;7.930;2024-02-26T07:36:37;8.20;99.90
14099;DHT22;7126;48.458;7.930;2024-02-26T07:39:03;8.20;99.90
14099;DHT22;7126;48.458;7.930;2024-02-26T07:41:28;8.20;99.90
14099;DHT22;7126;48.458;7.930;2024-02-26T07:43:54;8.30;99.90
14099;DHT22;7126;48.458;7.930;2024-02-26T07:46:19;8.30;99.90
14099;DHT22;7126;48.458;7.930;2024-02-26T07:48:45;8.30;99.90
14099;DHT22;7126;48.458;7.930;2024-02-26T07:51:13;8.40;99.90
14099;DHT22;7126;48.458;7.930;2024-02-26T07:53:39;8.40;99.90
14099;DHT22;7126;48.458;7.930;2024-02-26T07:56:05;8.40;99.90
14099;DHT22;7126;48.458;7.930;2024-02-26T07:58:32;8.50;99.90
14099;DHT22;7126;48.458;7.930;2024-02-26T08:00:57;8.50;99.90
14099;DHT22;7126;48.458;7.930;2024-02-26T08:03:23;8.50;99.90
14099;DHT22;7126;48.458;7.930;2024-02-26T08:05:48;8.60;99.90
14099;DHT22;7126;48.458;7.930;2024-02-26T08:08:14;8.60;99.90
14099;DHT22;7126;48.458;7.930;2024-02-26T08:10:39;8.60;99.90
14099;DHT22;7126;48.458;7.930;2024-02-26T08:13:05;8.70;99.90
14099;DHT22;7126;48.458;7.930;2024-02-26T08:15:36;8.80;99.90
14099;DHT22;7126;48.458;7.930;2024-02-26T08:18:05;8.80;99.90
14099;DHT22;7126;48.458;7.930;2024-02-26T08:20:31;8.90;99.90
14099;DHT22;7126;48.458;7.930;2024-02-26T08:22:57;9.00;99.90
14099;DHT22;7126;48.458;7.930;2024-02-26T08:25:23;9.00;99.90
14099;DHT22;7126;48.458;7.930;2024-02-26T08:27:49;9.10;99.90
14099;DHT22;7126;48.458;7.930;2024-02-26T08:30:15;9.10;99.90
14099;DHT22;7126;48.458;7.930;2024-02-26T08:32:48;9.20;99.90
14099;DHT22;7126;48.458;7.930;2024-02-26T08:35:14;9.20;99.90
14099;DHT22;7126;48.458;7.930;2024-02-26T08:37:40;9.20;99.90
14099;DHT22;7126;48.458;7.930;2024-02-26T08:40:06;9.20;99.90
14099;DHT22;7126;48.458;7.930;2024-02-26T08:42:32;9.30;99.90
14099;DHT22;7126;48.458;7.930;2024-02-26T08:44:57;9.40;99.90
14099;DHT22;7126;48.458;7.930;2024-02-26T08:47:25;9.50;99.90
14099;DHT22;7126;48.458;7.930;2024-02-26T08:49:51;9.60;99.90
14099;DHT22;7126;48.458;7.930;2024-02-26T08:52:17;9.70;99.90
14099;DHT22;7126;48.458;7.930;2024-02-26T08:54:42;9.70;99.90
14099;DHT22;7126;48.458;7.930;2024-02-26T08:57:08;9.80;99.90
14099;DHT22;7126;48.458;7.930;2024-02-26T08:59:33;9.90;99.90
14099;DHT22;7126;48.458;7.930;2024-02-26T09:01:59;9.90;99.90
14099;DHT22;7126;48.458;7.930;2024-02-26T09:04:24;10.00;99.90
14099;DHT22;7126;48.458;7.930;2024-02-26T09:06:52;10.00;99.90
14099;DHT22;7126;48.458;7.930;2024-02-26T09:09:18;10.20;99.90
14099;DHT22;7126;48.458;7.930;2024-02-26T09:11:43;10.30;99.90
14099;DHT22;7126;48.458;7.930;2024-02-26T09:14:09;10.40;99.90
14099;DHT22;7126;48.458;7.930;2024-02-26T09:16:34;10.40;99.90
14099;DHT22;7126;48.458;7.930;2024-02-26T09:19:01;10.50;99.90
14099;DHT22;7126;48.458;7.930;2024-02-26T09:21:28;10.60;99.90
14099;DHT22;7126;48.458;7.930;2024-02-26T09:23:54;10.70;99.90
14099;DHT22;7126;48.458;7.930;2024-02-26T09:26:19;10.70;99.90
14099;DHT22;7126;48.458;7.930;2024-02-26T09:28:45;10.70;99.90
14099;DHT22;7126;48.458;7.930;2024-02-26T09:31:10;10.70;99.90
14099;DHT22;7126;48.458;7.930;2024-02-26T09:33:36;10.80;99.90
14099;DHT22;7126;48.458;7.930;2024-02-26T09:36:03;10.90;99.90
14099;DHT22;7126;48.458;7.930;2024-02-26T09:38:29;11.00;99.90
14099;DHT22;7126;48.458;7.930;2024-02-26T09:40:58;11.10;99.90
14099;DHT22;7126;48.458;7.930;2024-02-26T09:43:25;11.30;99.90
14099;DHT22;7126;48.458;7.930;2024-02-26T09:45:54;11.30;99.90
14099;DHT22;7126;48.458;7.930;2024-02-26T09:48:22;11.40;99.90
14099;DHT22;7126;48.458;7.930;2024-02-26T09:50:49;11.40;99.90
14099;DHT22;7126;48.458;7.930;2024-02-26T09:53:14;11.50;99.90
14099;DHT22;7126;48.458;7.930;2024-02-26T09:55:41;11.60;99.90
14099;DHT22;7126;48.458;7.930;2024-02-26T09:58:07;11.60;99.90
14099;DHT22;7126;48.458;7.930;2024-02-26T10:00:37;11.70;99.90
14099;DHT22;7126;48.458;7.930;2024-02-26T10:03:06;11.80;99.90
14099;DHT22;7126;48.458;7.930;2024-02-26T10:05:35;11.90;99.90
14099;DHT22;7126;48.458;7.930;2024-02-26T10:08:04;12.00;99.90
14099;DHT22;7126;48.458;7.930;2024-02-26T10:10:30;12.00;99.90
14099;DHT22;7126;48.458;7.930;2024-02-26T10:12:57;12.10;99.90
14099;DHT22;7126;48.458;7.930;2024-02-26T10:15:24;12.10;99.90
14099;DHT22;7126;48.458;7.930;2024-02-26T10:17:50;12.10;99.90
14099;DHT22;7126;48.458;7.930;2024-02-26T10:20:17;12.20;99.90
14099;DHT22;7126;48.458;7.930;2024-02-26T10:22:46;12.30;99.90
14099;DHT22;7126;48.458;7.930;2024-02-26T10:25:11;12.40;99.90
14099;DHT22;7126;48.458;7.930;2024-02-26T10:27:37;12.50;99.90
14099;DHT22;7126;48.458;7.930;2024-02-26T10:30:04;12.50;99.90
14099;DHT22;7126;48.458;7.930;2024-02-26T10:32:30;12.50;99.90
14099;DHT22;7126;48.458;7.930;2024-02-26T10:34:57;12.60;99.90
14099;DHT22;7126;48.458;7.930;2024-02-26T10:37:23;12.60;99.90
14099;DHT22;7126;48.458;7.930;2024-02-26T10:39:48;12.50;99.90
14099;DHT22;7126;48.458;7.930;2024-02-26T10:42:14;12.50;99.90
14099;DHT22;7126;48.458;7.930;2024-02-26T10:44:40;12.50;99.90
14099;DHT22;7126;48.458;7.930;2024-02-26T10:47:07;12.50;99.90
14099;DHT22;7126;48.458;7.930;2024-02-26T10:49:35;12.60;99.90
14099;DHT22;7126;48.458;7.930;2024-02-26T10:52:01;12.70;99.90
14099;DHT22;7126;48.458;7.930;2024-02-26T10:54:29;12.70;99.90
14099;DHT22;7126;48.458;7.930;2024-02-26T10:56:57;12.80;99.90
14099;DHT22;7126;48.458;7.930;2024-02-26T10:59:24;12.90;99.90
14099;DHT22;7126;48.458;7.930;2024-02-26T11:01:50;13.00;99.90
14099;DHT22;7126;48.458;7.930;2024-02-26T11:04:17;13.00;99.90
14099;DHT22;7126;48.458;7.930;2024-02-26T11:06:44;13.00;99.90
14099;DHT22;7126;48.458;7.930;2024-02-26T11:09:12;13.00;99.90
14099;DHT22;7126;48.458;7.930;2024-02-26T11:11:38;13.00;99.90
14099;DHT22;7126;48.458;7.930;2024-02-26T11:14:06;13.00;99.90
14099;DHT22;7126;48.458;7.930;2024-02-26T11:16:35;13.10;99.90
14099;DHT22;7126;48.458;7.930;2024-02-26T11:19:02;13.20;99.90
14099;DHT22;7126;48.458;7.930;2024-02-26T11:21:28;13.20;99.90
14099;DHT22;7126;48.458;7.930;2024-02-26T11:24:05;13.20;99.90
14099;DHT22;7126;48.458;7.930;2024-02-26T11:26:33;13.20;99.90
14099;DHT22;7126;48.458;7.930;2024-02-26T11:28:59;13.20;99.90
14099;DHT22;7126;48.458;7.930;2024-02-26T11:31:26;13.20;99.90
14099;DHT22;7126;48.458;7.930;2024-02-26T11:33:53;13.20;99.90
14099;DHT22;7126;48.458;7.930;2024-02-26T11:36:19;13.30;99.90
14099;DHT22;7126;48.458;7.930;2024-02-26T11:38:46;13.30;99.90
14099;DHT22;7126;48.458;7.930;2024-02-26T11:41:15;13.30;99.90
14099;DHT22;7126;48.458;7.930;2024-02-26T11:43:51;13.30;99.90
14099;DHT22;7126;48.458;7.930;2024-02-26T11:46:30;13.40;99.90
14099;DHT22;7126;48.458;7.930;2024-02-26T11:49:00;13.50;99.90
14099;DHT22;7126;48.458;7.930;2024-02-26T11:51:33;13.50;99.90
14099;DHT22;7126;48.458;7.930;2024-02-26T11:53:59;13.50;99.90
14099;DHT22;7126;48.458;7.930;2024-02-26T11:56:25;13.60;99.90
14099;DHT22;7126;48.458;7.930;2024-02-26T11:59:00;13.60;99.90
14099;DHT22;7126;48.458;7.930;2024-02-26T12:01:42;13.70;99.90
14099;DHT22;7126;48.458;7.930;2024-02-26T12:04:19;13.70;99.90
14099;DHT22;7126;48.458;7.930;2024-02-26T12:06:51;13.70;99.90
14099;DHT22;7126;48.458;7.930;2024-02-26T12:09:39;13.80;99.90
14099;DHT22;7126;48.458;7.930;2024-02-26T12:12:07;13.90;99.90
14099;DHT22;7126;48.458;7.930;2024-02-26T12:14:34;13.90;99.90
14099;DHT22;7126;48.458;7.930;2024-02-26T12:17:00;13.80;99.90
14099;DHT22;7126;48.458;7.930;2024-02-26T12:19:27;13.80;99.90
14099;DHT22;7126;48.458;7.930;2024-02-26T12:21:53;13.80;99.90
14099;DHT22;7126;48.458;7.930;2024-02-26T12:24:20;13.80;99.90
14099;DHT22;7126;48.458;7.930;2024-02-26T12:26:46;13.70;99.90
14099;DHT22;7126;48.458;7.930;2024-02-26T12:29:12;13.70;99.90
14099;DHT22;7126;48.458;7.930;2024-02-26T12:31:39;13.70;99.90
14099;DHT22;7126;48.458;7.930;2024-02-26T12:34:06;13.60;99.90
14099;DHT22;7126;48.458;7.930;2024-02-26T12:36:33;13.60;99.90
14099;DHT22;7126;48.458;7.930;2024-02-26T12:39:00;13.60;99.90
14099;DHT22;7126;48.458;7.930;2024-02-26T12:41:26;13.60;99.90
14099;DHT22;7126;48.458;7.930;2024-02-26T12:43:53;13.50;99.90
14099;DHT22;7126;48.458;7.930;2024-02-26T12:46:18;13.50;99.90
14099;DHT22;7126;48.458;7.930;2024-02-26T12:48:44;13.50;99.90
14099;DHT22;7126;48.458;7.930;2024-02-26T12:51:12;13.50;99.90
14099;DHT22;7126;48.458;7.930;2024-02-26T12:53:38;13.50;99.90
14099;DHT22;7126;48.458;7.930;2024-02-26T12:56:04;13.50;99.90
14099;DHT22;7126;48.458;7.930;2024-02-26T12:58:31;13.50;99.90
14099;DHT22;7126;48.458;7.930;2024-02-26T13:00:57;13.50;99.90
14099;DHT22;7126;48.458;7.930;2024-02-26T13:03:23;13.40;99.90
14099;DHT22;7126;48.458;7.930;2024-02-26T13:05:49;13.40;99.90
14099;DHT22;7126;48.458;7.930;2024-02-26T13:08:19;13.40;99.90
14099;DHT22;7126;48.458;7.930;2024-02-26T13:10:48;13.30;99.90
14099;DHT22;7126;48.458;7.930;2024-02-26T13:13:18;13.30;99.90
14099;DHT22;7126;48.458;7.930;2024-02-26T13:15:44;13.30;99.90
14099;DHT22;7126;48.458;7.930;2024-02-26T13:18:10;13.30;99.90
14099;DHT22;7126;48.458;7.930;2024-02-26T13:20:36;13.30;99.90
14099;DHT22;7126;48.458;7.930;2024-02-26T13:23:03;13.30;99.90
14099;DHT22;7126;48.458;7.930;2024-02-26T13:25:30;13.20;99.90
14099;DHT22;7126;48.458;7.930;2024-02-26T13:28:18;13.20;99.90
14099;DHT22;7126;48.458;7.930;2024-02-26T13:30:55;13.20;99.90
14099;DHT22;7126;48.458;7.930;2024-02-26T13:33:24;13.30;99.90
14099;DHT22;7126;48.458;7.930;2024-02-26T13:35:50;13.30;99.90
14099;DHT22;7126;48.458;7.930;2024-02-26T13:38:16;13.40;99.90
14099;DHT22;7126;48.458;7.930;2024-02-26T13:40:41;13.40;99.90
14099;DHT22;7126;48.458;7.930;2024-02-26T13:43:07;13.40;99.90
14099;DHT22;7126;48.458;7.930;2024-02-26T13:45:37;13.40;99.90
14099;DHT22;7126;48.458;7.930;2024-02-26T13:48:04;13.40;99.90
14099;DHT22;7126;48.458;7.930;2024-02-26T13:50:30;13.30;99.90
14099;DHT22;7126;48.458;7.930;2024-02-26T13:52:56;13.30;99.90
14099;DHT22;7126;48.458;7.930;2024-02-26T13:55:23;13.30;99.90
14099;DHT22;7126;48.458;7.930;2024-02-26T13:57:52;13.30;99.90
14099;DHT22;7126;48.458;7.930;2024-02-26T14:00:19;13.20;99.90
14099;DHT22;7126;48.458;7.930;2024-02-26T14:02:44;13.20;99.90
14099;DHT22;7126;48.458;7.930;2024-02-26T14:05:10;13.20;99.90
14099;DHT22;7126;48.458;7.930;2024-02-26T14:07:36;13.20;99.90
14099;DHT22;7126;48.458;7.930;2024-02-26T14:10:02;13.20;99.90
14099;DHT22;7126;48.458;7.930;2024-02-26T14:12:27;13.20;99.90
14099;DHT22;7126;48.458;7.930;2024-02-26T14:14:53;13.20;99.90
14099;DHT22;7126;48.458;7.930;2024-02-26T14:17:21;13.20;99.90
14099;DHT22;7126;48.458;7.930;2024-02-26T14:19:47;13.30;99.90
14099;DHT22;7126;48.458;7.930;2024-02-26T14:22:14;13.20;99.90
14099;DHT22;7126;48.458;7.930;2024-02-26T14:24:40;13.20;99.90
14099;DHT22;7126;48.458;7.930;2024-02-26T14:27:08;13.20;99.90
14099;DHT22;7126;48.458;7.930;2024-02-26T14:29:34;13.20;99.90
14099;DHT22;7126;48.458;7.930;2024-02-26T14:32:00;13.30;99.90
14099;DHT22;7126;48.458;7.930;2024-02-26T14:34:27;13.30;99.90
14099;DHT22;7126;48.458;7.930;2024-02-26T14:36:52;13.30;99.90
14099;DHT22;7126;48.458;7.930;2024-02-26T14:39:18;13.30;99.90
14099;DHT22;7126;48.458;7.930;2024-02-26T14:41:44;13.30;99.90
14099;DHT22;7126;48.458;7.930;2024-02-26T14:44:09;13.40;99.90
14099;DHT22;7126;48.458;7.930;2024-02-26T14:46:36;13.40;99.90
14099;DHT22;7126;48.458;7.930;2024-02-26T14:49:01;13.40;99.90
14099;DHT22;7126;48.458;7.930;2024-02-26T14:51:27;13.40;99.90
14099;DHT22;7126;48.458;7.930;2024-02-26T14:53:53;13.40;99.90
14099;DHT22;7126;48.458;7.930;2024-02-26T14:56:18;13.40;99.90
14099;DHT22;7126;48.458;7.930;2024-02-26T14:58:44;13.40;99.90
14099;DHT22;7126;48.458;7.930;2024-02-26T15:01:10;13.30;99.90
14099;DHT22;7126;48.458;7.930;2024-02-26T15:03:37;13.30;99.90
14099;DHT22;7126;48.458;7.930;2024-02-26T15:06:02;13.30;99.90
14099;DHT22;7126;48.458;7.930;2024-02-26T15:08:28;13.30;99.90
14099;DHT22;7126;48.458;7.930;2024-02-26T15:10:53;13.30;99.90
14099;DHT22;7126;48.458;7.930;2024-02-26T15:13:19;13.30;99.90
14099;DHT22;7126;48.458;7.930;2024-02-26T15:15:45;13.30;99.90
14099;DHT22;7126;48.458;7.930;2024-02-26T15:18:10;13.30;99.90
14099;DHT22;7126;48.458;7.930;2024-02-26T15:20:41;13.30;99.90
14099;DHT22;7126;48.458;7.930;2024-02-26T15:23:08;13.30;99.90
14099;DHT22;7126;48.458;7.930;2024-02-26T15:25:34;13.30;99.90
14099;DHT22;7126;48.458;7.930;2024-02-26T15:27:59;13.30;99.90
14099;DHT22;7126;48.458;7.930;2024-02-26T15:30:25;13.20;99.90
14099;DHT22;7126;48.458;7.930;2024-02-26T15:32:52;13.20;99.90
14099;DHT22;7126;48.458;7.930;2024-02-26T15:35:18;13.20;99.90
14099;DHT22;7126;48.458;7.930;2024-02-26T15:37:43;13.20;99.90
14099;DHT22;7126;48.458;7.930;2024-02-26T15:40:09;13.20;99.90
14099;DHT22;7126;48.458;7.930;2024-02-26T15:42:36;13.20;99.90
14099;DHT22;7126;48.458;7.930;2024-02-26T15:45:02;13.20;99.90
14099;DHT22;7126;48.458;7.930;2024-02-26T15:47:28;13.20;99.90
14099;DHT22;7126;48.458;7.930;2024-02-26T15:49:53;13.20;99.90